Time;durP1;ratioP1;P1;durP2;ratioP2;P2;SDS_P1;SDS_P2;PMS_P1;PMS_P2;Temp;Humidity;BMP_temperature;BMP_pressure;BME280_temperature;BME280_humidity;BME280_pressure;Samples;Min_cycle;Max_cycle;Signal;HPM_P1;HPM_P2
2023/09/08 00:00:47;;;;;;;5.23;3.80;;;;;;;19.67;100.00;101908.09;5041175;28;20191;-71
2023/09/08 00:03:12;;;;;;;6.50;4.17;;;;;;;19.66;100.00;101903.72;5039554;28;20188;-71
2023/09/08 00:05:38;;;;;;;6.70;3.60;;;;;;;19.28;100.00;101872.25;5038151;28;20485;-71
2023/09/08 00:08:03;;;;;;;5.77;3.87;;;;;;;18.91;100.00;101823.41;5040363;28;20194;-71
2023/09/08 00:10:29;;;;;;;5.30;3.80;;;;;;;18.93;100.00;101851.19;5042202;28;20244;-71
2023/09/08 00:12:54;;;;;;;7.30;4.00;;;;;;;19.13;100.00;101878.13;5032404;28;20207;-71
2023/09/08 00:15:20;;;;;;;5.40;3.63;;;;;;;19.35;100.00;101900.19;5037896;28;20192;-71
2023/09/08 00:17:47;;;;;;;4.50;3.47;;;;;;;19.56;100.00;101896.13;5036897;28;20231;-71
2023/09/08 00:20:13;;;;;;;6.23;3.90;;;;;;;19.26;100.00;101893.41;5036693;28;20283;-71
2023/09/08 00:22:39;;;;;;;6.83;4.40;;;;;;;18.55;100.00;101766.41;5039722;28;20462;-71
2023/09/08 00:25:05;;;;;;;6.93;4.73;;;;;;;18.87;100.00;101815.97;5036798;28;20988;-71
2023/09/08 00:27:31;;;;;;;4.83;3.63;;;;;;;18.82;100.00;101838.38;5036997;28;20235;-71
2023/09/08 00:29:57;;;;;;;5.37;4.30;;;;;;;18.65;100.00;101830.00;5041120;28;20906;-71
2023/09/08 00:32:22;;;;;;;5.17;3.60;;;;;;;19.03;100.00;101913.16;5035219;28;20509;-71
2023/09/08 00:34:47;;;;;;;6.17;4.63;;;;;;;18.75;100.00;101834.94;5037134;28;20196;-71
2023/09/08 00:37:13;;;;;;;5.20;3.77;;;;;;;18.82;100.00;101853.84;5039664;28;20183;-71
2023/09/08 00:39:38;;;;;;;6.03;4.17;;;;;;;18.79;100.00;101879.59;5036573;28;20223;-71
2023/09/08 00:42:04;;;;;;;6.27;4.77;;;;;;;18.93;100.00;101908.28;5032876;28;20686;-71
2023/09/08 00:44:30;;;;;;;5.37;4.27;;;;;;;18.85;100.00;101908.59;5032264;28;20271;-71
2023/09/08 00:46:56;;;;;;;5.53;3.60;;;;;;;18.59;100.00;101863.50;5033928;28;20540;-71
2023/09/08 00:49:22;;;;;;;5.00;3.40;;;;;;;18.87;100.00;101897.50;5032624;28;20224;-71
2023/09/08 00:51:48;;;;;;;5.67;3.70;;;;;;;18.82;100.00;101892.75;5047381;28;20520;-71
2023/09/08 00:54:14;;;;;;;6.57;3.90;;;;;;;18.81;100.00;101873.97;5042901;28;20446;-71
2023/09/08 00:56:40;;;;;;;6.33;3.50;;;;;;;18.78;100.00;101866.25;5034352;28;20196;-71
2023/09/08 00:59:07;;;;;;;6.83;3.83;;;;;;;18.94;100.00;101881.91;5034366;28;20442;-71
2023/09/08 01:01:34;;;;;;;6.10;3.90;;;;;;;18.50;100.00;101845.84;5034898;28;20203;-71
2023/09/08 01:04:00;;;;;;;5.60;3.50;;;;;;;18.38;100.00;101817.81;5041860;28;20534;-71
2023/09/08 01:06:27;;;;;;;5.47;4.63;;;;;;;18.49;100.00;101874.91;5034322;28;20826;-71
2023/09/08 01:08:53;;;;;;;6.13;4.03;;;;;;;18.65;100.00;101894.38;5036664;28;20442;-71
2023/09/08 01:11:20;;;;;;;5.13;3.87;;;;;;;18.70;100.00;101880.94;5035440;28;20865;-71
2023/09/08 01:13:45;;;;;;;4.70;3.50;;;;;;;18.51;100.00;101842.94;5032138;28;20454;-71
2023/09/08 01:16:11;;;;;;;4.93;3.80;;;;;;;18.71;100.00;101894.28;5035530;28;20443;-71
2023/09/08 01:18:37;;;;;;;6.03;4.13;;;;;;;18.69;100.00;101899.16;5031842;28;20252;-71
2023/09/08 01:21:27;;;;;;;6.20;4.13;;;;;;;18.63;100.00;101896.47;5037443;28;20200;-71
2023/09/08 01:24:10;;;;;;;5.23;3.90;;;;;;;18.56;100.00;101891.13;5037072;28;20541;-71
2023/09/08 01:26:39;;;;;;;6.03;4.20;;;;;;;18.49;100.00;101903.97;5037980;28;21297;-71
2023/09/08 01:29:06;;;;;;;5.70;4.00;;;;;;;18.16;100.00;101855.41;5039528;28;20455;-71
2023/09/08 01:31:32;;;;;;;5.97;4.10;;;;;;;18.03;100.00;101829.25;5030806;28;20471;-71
2023/09/08 01:33:59;;;;;;;6.53;5.00;;;;;;;17.94;100.00;101820.56;5034331;28;20929;-71
2023/09/08 01:36:25;;;;;;;7.87;5.07;;;;;;;17.97;100.00;101844.53;5034390;28;20469;-71
2023/09/08 01:38:50;;;;;;;7.37;3.93;;;;;;;18.34;100.00;101900.78;5034810;28;20954;-71
2023/09/08 01:41:16;;;;;;;5.83;3.90;;;;;;;17.58;100.00;101770.56;5032524;28;20203;-71
2023/09/08 01:43:41;;;;;;;5.70;4.33;;;;;;;17.58;100.00;101792.25;5035030;28;20196;-71
2023/09/08 01:46:06;;;;;;;5.83;4.40;;;;;;;18.19;100.00;101865.84;5031161;28;20243;-71
2023/09/08 01:48:32;;;;;;;6.73;4.57;;;;;;;18.14;100.00;101877.38;5031789;28;20192;-71
2023/09/08 01:50:57;;;;;;;5.77;3.87;;;;;;;18.20;100.00;101889.22;5033363;28;20288;-71
2023/09/08 01:53:23;;;;;;;6.93;4.30;;;;;;;18.20;100.00;101906.34;5036293;28;20203;-71
2023/09/08 01:55:48;;;;;;;6.83;4.30;;;;;;;18.05;100.00;101893.13;5043858;28;20246;-71
2023/09/08 01:58:13;;;;;;;6.17;4.17;;;;;;;18.29;100.00;101890.59;5032365;28;20238;-71
2023/09/08 02:00:39;;;;;;;7.30;4.43;;;;;;;18.41;100.00;101896.13;5034272;28;20552;-71
2023/09/08 02:03:04;;;;;;;6.00;3.87;;;;;;;18.37;100.00;101887.59;5031959;28;20678;-71
2023/09/08 02:05:30;;;;;;;5.43;3.73;;;;;;;18.07;100.00;101852.16;5035536;28;20277;-72
2023/09/08 02:07:56;;;;;;;8.03;4.50;;;;;;;18.16;100.00;101864.41;5035352;28;20189;-71
2023/09/08 02:10:22;;;;;;;6.43;4.60;;;;;;;17.42;100.00;101762.16;5032850;28;20212;-71
2023/09/08 02:12:47;;;;;;;5.90;4.00;;;;;;;18.24;100.00;101896.69;5032693;28;20858;-71
2023/09/08 02:15:12;;;;;;;6.37;4.37;;;;;;;18.15;100.00;101884.47;5033086;28;20189;-71
2023/09/08 02:17:38;;;;;;;6.57;4.50;;;;;;;18.01;100.00;101856.59;5032682;28;20191;-71
2023/09/08 02:20:04;;;;;;;7.80;4.33;;;;;;;17.92;100.00;101878.84;5037877;28;20191;-71
2023/09/08 02:22:29;;;;;;;5.27;4.20;;;;;;;17.25;100.00;101764.59;5036868;28;20208;-71
2023/09/08 02:24:56;;;;;;;7.60;4.40;;;;;;;18.15;100.00;101895.31;5032945;28;20458;-71
2023/09/08 02:27:22;;;;;;;6.80;4.37;;;;;;;17.46;100.00;101793.22;5034678;28;20658;-71
2023/09/08 02:29:47;;;;;;;7.80;4.40;;;;;;;17.93;100.00;101902.19;5031616;28;20483;-71
2023/09/08 02:32:14;;;;;;;6.60;4.23;;;;;;;17.80;100.00;101879.56;5048491;28;20264;-71
2023/09/08 02:34:39;;;;;;;6.10;4.53;;;;;;;17.80;100.00;101903.97;5036434;28;20233;-71
2023/09/08 02:37:05;;;;;;;6.70;4.87;;;;;;;17.91;100.00;101898.91;5033408;28;20454;-71
2023/09/08 02:39:30;;;;;;;6.40;4.40;;;;;;;17.90;100.00;101897.22;5046495;28;20194;-71
2023/09/08 02:41:55;;;;;;;13.90;5.50;;;;;;;17.44;100.00;101827.84;5034963;28;20964;-71
2023/09/08 02:44:22;;;;;;;6.80;4.00;;;;;;;17.89;100.00;101898.28;5032471;28;20249;-71
2023/09/08 02:46:47;;;;;;;5.60;4.20;;;;;;;17.16;100.00;101799.28;5033744;28;20848;-71
2023/09/08 02:49:13;;;;;;;5.43;4.00;;;;;;;17.87;100.00;101900.38;5030804;28;20521;-71
2023/09/08 02:51:38;;;;;;;7.10;4.73;;;;;;;17.97;100.00;101908.88;5040513;28;20227;-71
2023/09/08 02:54:04;;;;;;;9.37;4.60;;;;;;;17.74;100.00;101915.69;5028811;28;20188;-71
2023/09/08 02:56:29;;;;;;;6.50;4.30;;;;;;;17.61;100.00;101905.75;5032759;28;20188;-71
2023/09/08 02:58:55;;;;;;;6.80;4.87;;;;;;;17.48;100.00;101896.91;5050698;28;20250;-71
2023/09/08 03:01:20;;;;;;;7.07;4.73;;;;;;;17.13;100.00;101849.34;5029378;28;20196;-71
2023/09/08 03:03:47;;;;;;;5.60;4.53;;;;;;;17.59;100.00;101905.16;5031746;28;20184;-71
2023/09/08 03:06:18;;;;;;;6.87;5.37;;;;;;;17.32;100.00;101852.97;5029601;28;20189;-71
2023/09/08 03:08:43;;;;;;;7.80;4.40;;;;;;;17.31;100.00;101897.41;5038696;28;20450;-71
2023/09/08 03:11:09;;;;;;;6.10;4.80;;;;;;;16.84;100.00;101823.66;5037136;28;20523;-71
2023/09/08 03:13:35;;;;;;;8.60;4.87;;;;;;;17.42;100.00;101900.50;5034288;28;20618;-71
2023/09/08 03:16:08;;;;;;;6.40;5.00;;;;;;;16.59;100.00;101796.44;5035787;28;20265;-71
2023/09/08 03:18:36;;;;;;;6.60;4.40;;;;;;;17.21;100.00;101910.59;5035431;28;20450;-71
2023/09/08 03:21:08;;;;;;;6.70;5.03;;;;;;;17.22;100.00;101906.03;5036132;28;20458;-71
2023/09/08 03:23:38;;;;;;;6.10;4.50;;;;;;;17.11;100.00;101910.25;5035000;28;20971;-71
2023/09/08 03:26:03;;;;;;;7.20;4.77;;;;;;;17.21;100.00;101907.88;5041627;28;20794;-71
2023/09/08 03:28:29;;;;;;;7.27;4.80;;;;;;;17.16;100.00;101884.16;5039956;28;20449;-71
2023/09/08 03:30:54;;;;;;;6.00;4.93;;;;;;;16.61;100.00;101829.56;5035705;28;20224;-71
2023/09/08 03:33:20;;;;;;;6.93;4.37;;;;;;;16.87;100.00;101890.13;5047606;28;20192;-71
2023/09/08 03:35:45;;;;;;;5.37;4.83;;;;;;;17.04;100.00;101902.16;5036739;28;20195;-71
2023/09/08 03:38:10;;;;;;;6.67;4.50;;;;;;;16.65;100.00;101855.16;5040686;28;20191;-71
2023/09/08 03:40:36;;;;;;;6.23;4.93;;;;;;;16.43;100.00;101824.84;5032211;28;20195;-71
2023/09/08 03:43:01;;;;;;;7.20;4.90;;;;;;;16.26;100.00;101793.88;5049912;28;20631;-71
2023/09/08 03:45:27;;;;;;;7.40;5.47;;;;;;;16.98;100.00;101892.19;5033261;28;20233;-71
2023/09/08 03:47:52;;;;;;;7.40;5.30;;;;;;;16.04;100.00;101790.59;5035794;28;20191;-71
2023/09/08 03:50:17;;;;;;;5.80;4.70;;;;;;;16.66;100.00;101856.00;5036274;28;20298;-71
2023/09/08 03:52:43;;;;;;;6.10;4.80;;;;;;;16.48;100.00;101833.13;5033883;28;20207;-71
2023/09/08 03:55:08;;;;;;;5.63;4.20;;;;;;;16.80;100.00;101892.84;5037984;28;20199;-71
2023/09/08 03:57:34;;;;;;;6.47;4.67;;;;;;;16.22;100.00;101785.31;5038408;28;20191;-71
2023/09/08 03:59:59;;;;;;;5.90;4.80;;;;;;;16.77;100.00;101892.47;5037770;28;20901;-71
2023/09/08 04:02:24;;;;;;;5.93;4.80;;;;;;;15.87;100.00;101737.97;5033215;28;20239;-71
2023/09/08 04:04:50;;;;;;;6.97;5.20;;;;;;;16.28;100.00;101794.47;5034285;28;20192;-71
2023/09/08 04:07:15;;;;;;;6.37;4.93;;;;;;;16.04;100.00;101760.81;5037266;28;20184;-71
2023/09/08 04:09:41;;;;;;;6.83;4.87;;;;;;;16.54;100.00;101842.28;5036016;28;20204;-71
2023/09/08 04:12:09;;;;;;;6.73;5.17;;;;;;;16.20;100.00;101767.63;5035802;28;20337;-71
2023/09/08 04:14:34;;;;;;;6.80;4.83;;;;;;;16.77;100.00;101879.75;5034203;28;20279;-71
2023/09/08 04:16:59;;;;;;;5.80;4.63;;;;;;;16.81;100.00;101880.16;5034588;28;20525;-71
2023/09/08 04:19:25;;;;;;;6.00;4.80;;;;;;;16.78;100.00;101845.34;5036325;28;20188;-71
2023/09/08 04:21:51;;;;;;;7.73;5.50;;;;;;;16.66;100.00;101812.66;5034568;28;20666;-71
2023/09/08 04:24:16;;;;;;;8.43;5.00;;;;;;;17.07;100.00;101871.91;5035036;28;20450;-71
2023/09/08 04:26:42;;;;;;;5.93;4.77;;;;;;;16.60;100.00;101805.38;5038702;28;20184;-71
2023/09/08 04:29:07;;;;;;;6.60;4.90;;;;;;;16.93;100.00;101881.97;5033761;28;20653;-71
2023/09/08 04:31:32;;;;;;;7.80;5.27;;;;;;;16.89;100.00;101856.38;5034881;28;20226;-71
2023/09/08 04:33:58;;;;;;;5.60;4.23;;;;;;;16.49;100.00;101761.69;5031412;28;20188;-71
2023/09/08 04:36:23;;;;;;;8.87;5.13;;;;;;;16.12;100.00;101719.19;5033438;28;20226;-71
2023/09/08 04:38:49;;;;;;;10.20;4.90;;;;;;;16.15;100.00;101756.63;5033099;28;20188;-71
2023/09/08 04:41:14;;;;;;;6.23;4.90;;;;;;;16.99;100.00;101869.44;5034790;28;20208;-71
2023/09/08 04:43:39;;;;;;;6.87;5.10;;;;;;;16.65;100.00;101832.66;5035250;28;20181;-71
2023/09/08 04:46:05;;;;;;;6.53;5.50;;;;;;;16.65;100.00;101841.63;5035322;28;20258;-71
2023/09/08 04:48:30;;;;;;;7.27;5.23;;;;;;;16.81;100.00;101862.03;5033406;28;20274;-71
2023/09/08 04:50:57;;;;;;;6.27;4.70;;;;;;;16.97;100.00;101879.66;5036726;28;20235;-71
2023/09/08 04:53:22;;;;;;;8.37;5.37;;;;;;;17.24;100.00;101861.38;5036145;28;20612;-71
2023/09/08 04:55:47;;;;;;;8.30;5.40;;;;;;;17.16;100.00;101831.81;5049118;28;20545;-71
2023/09/08 04:58:13;;;;;;;7.60;5.47;;;;;;;16.75;100.00;101773.44;5041073;28;20226;-71
2023/09/08 05:00:40;;;;;;;7.20;5.00;;;;;;;16.93;100.00;101800.66;5033751;28;20865;-71
2023/09/08 05:03:06;;;;;;;6.20;4.97;;;;;;;17.01;100.00;101870.06;5037942;28;20180;-71
2023/09/08 05:05:31;;;;;;;7.27;5.43;;;;;;;16.85;100.00;101857.81;5037279;28;20468;-71
2023/09/08 05:07:57;;;;;;;7.17;5.23;;;;;;;16.51;100.00;101799.38;5038122;28;20188;-71
2023/09/08 05:10:23;;;;;;;6.17;4.77;;;;;;;16.28;100.00;101767.41;5037978;28;20298;-71
2023/09/08 05:12:49;;;;;;;7.60;5.23;;;;;;;16.62;100.00;101854.78;5033492;28;20308;-71
2023/09/08 05:15:16;;;;;;;6.60;4.70;;;;;;;17.01;100.00;101877.34;5032490;28;20446;-71
2023/09/08 05:17:42;;;;;;;5.57;4.43;;;;;;;16.91;100.00;101883.22;5027586;28;20191;-71
2023/09/08 05:20:08;;;;;;;6.47;4.80;;;;;;;16.97;100.00;101887.78;5031284;28;20438;-71
2023/09/08 05:22:33;;;;;;;7.07;5.10;;;;;;;16.75;100.00;101857.44;5029005;28;20286;-70
2023/09/08 05:24:58;;;;;;;6.37;5.10;;;;;;;16.64;100.00;101850.81;5043813;28;20546;-70
2023/09/08 05:27:24;;;;;;;6.53;5.17;;;;;;;16.99;100.00;101883.00;5030169;28;20267;-71
2023/09/08 05:29:49;;;;;;;6.40;4.93;;;;;;;16.83;100.00;101838.22;5031981;28;20204;-70
2023/09/08 05:32:15;;;;;;;6.97;5.40;;;;;;;16.11;100.00;101756.22;5035637;28;20212;-71
2023/09/08 05:34:40;;;;;;;7.03;5.00;;;;;;;16.61;100.00;101788.09;5034339;28;20188;-71
2023/09/08 05:37:06;;;;;;;6.00;4.83;;;;;;;16.83;100.00;101849.06;5036562;28;20195;-71
2023/09/08 05:39:31;;;;;;;7.70;5.57;;;;;;;17.23;100.00;101881.38;5033284;28;20191;-71
2023/09/08 05:41:57;;;;;;;7.67;5.40;;;;;;;16.69;100.00;101785.97;5032484;28;20261;-71
2023/09/08 05:44:22;;;;;;;9.13;5.53;;;;;;;17.04;100.00;101841.66;5036090;28;20241;-71
2023/09/08 05:46:48;;;;;;;6.40;5.50;;;;;;;17.29;100.00;101874.25;5038973;28;20183;-71
2023/09/08 05:49:14;;;;;;;7.47;5.43;;;;;;;17.34;100.00;101856.28;5035513;28;20191;-71
2023/09/08 05:51:39;;;;;;;6.80;4.97;;;;;;;17.33;100.00;101853.81;5037597;28;20550;-71
2023/09/08 05:54:05;;;;;;;6.77;5.20;;;;;;;17.31;100.00;101866.75;5034840;28;20187;-71
2023/09/08 05:56:31;;;;;;;6.93;4.97;;;;;;;17.37;100.00;101865.88;5038270;28;20325;-71
2023/09/08 05:58:58;;;;;;;6.70;5.23;;;;;;;16.54;100.00;101736.66;5035012;28;20195;-71
2023/09/08 06:01:24;;;;;;;7.57;5.33;;;;;;;17.49;100.00;101876.84;5038754;28;20435;-71
2023/09/08 06:03:50;;;;;;;7.57;5.80;;;;;;;17.63;100.00;101867.56;5040129;28;20561;-71
2023/09/08 06:06:15;;;;;;;8.00;5.13;;;;;;;17.45;100.00;101864.78;5037112;28;20524;-71
2023/09/08 06:08:40;;;;;;;5.80;4.73;;;;;;;17.55;100.00;101865.13;5039325;28;20234;-71
2023/09/08 06:11:06;;;;;;;7.37;5.33;;;;;;;17.68;100.00;101872.34;5032786;28;20269;-71
2023/09/08 06:13:31;;;;;;;6.60;4.90;;;;;;;16.87;100.00;101744.63;5034673;28;20255;-71
2023/09/08 06:15:57;;;;;;;6.80;4.93;;;;;;;17.52;100.00;101846.56;5040860;28;20230;-71
2023/09/08 06:18:22;;;;;;;10.83;6.67;;;;;;;17.49;100.00;101834.28;5034244;28;20195;-71
2023/09/08 06:20:48;;;;;;;7.00;5.33;;;;;;;17.81;100.00;101873.06;5041817;28;20275;-71
2023/09/08 06:23:14;;;;;;;9.67;5.80;;;;;;;17.63;100.00;101848.56;5034064;28;20187;-71
2023/09/08 06:25:40;;;;;;;7.07;5.43;;;;;;;17.50;100.00;101876.63;5036070;28;20187;-71
2023/09/08 06:28:06;;;;;;;6.20;5.03;;;;;;;16.78;100.00;101735.13;5034642;28;20446;-70
2023/09/08 06:30:31;;;;;;;6.90;5.70;;;;;;;17.64;100.00;101858.34;5031922;28;20831;-71
2023/09/08 06:32:57;;;;;;;7.13;5.33;;;;;;;17.51;100.00;101796.09;5030468;28;20195;-71
2023/09/08 06:35:22;;;;;;;7.50;5.90;;;;;;;17.94;100.00;101850.44;5033529;28;20180;-71
2023/09/08 06:37:47;;;;;;;6.60;5.40;;;;;;;17.55;100.00;101802.72;5030296;28;20191;-71
2023/09/08 06:40:13;;;;;;;6.17;5.03;;;;;;;17.78;100.00;101849.09;5037070;28;20715;-71
2023/09/08 06:42:38;;;;;;;8.33;5.67;;;;;;;17.55;100.00;101770.16;5033453;28;20196;-71
2023/09/08 06:45:04;;;;;;;8.83;6.20;;;;;;;18.00;100.00;101854.97;5029773;28;20657;-71
2023/09/08 06:47:30;;;;;;;7.53;5.90;;;;;;;17.82;100.00;101812.34;5032511;28;20235;-71
2023/09/08 06:49:55;;;;;;;7.13;5.77;;;;;;;17.47;100.00;101744.16;5028170;28;20523;-71
2023/09/08 06:52:20;;;;;;;6.40;5.07;;;;;;;18.16;100.00;101860.84;5039320;28;20656;-71
2023/09/08 06:54:46;;;;;;;7.00;5.47;;;;;;;17.98;100.00;101843.47;5029893;28;20266;-71
2023/09/08 06:57:12;;;;;;;7.03;5.53;;;;;;;18.42;100.00;101859.75;5034509;28;20198;-71
2023/09/08 06:59:38;;;;;;;7.60;5.57;;;;;;;18.33;100.00;101844.81;5032157;28;20462;-71
2023/09/08 07:02:04;;;;;;;7.23;5.63;;;;;;;18.46;100.00;101856.34;5030007;28;20494;-71
2023/09/08 07:04:30;;;;;;;8.43;5.57;;;;;;;18.14;100.00;101800.50;5030041;28;20194;-71
2023/09/08 07:06:55;;;;;;;7.30;5.60;;;;;;;18.21;100.00;101796.66;5036660;28;20726;-71
2023/09/08 07:09:21;;;;;;;6.60;5.40;;;;;;;18.30;100.00;101827.06;5030963;28;20552;-71
2023/09/08 07:11:46;;;;;;;7.43;5.27;;;;;;;17.75;100.00;101735.53;5032404;28;20208;-71
2023/09/08 07:14:12;;;;;;;7.00;5.70;;;;;;;18.66;100.00;101872.44;5031494;28;20203;-71
2023/09/08 07:16:37;;;;;;;7.50;5.80;;;;;;;18.53;100.00;101796.50;5041240;28;20187;-71
2023/09/08 07:19:03;;;;;;;7.60;5.50;;;;;;;18.83;100.00;101861.78;5035993;28;20669;-71
2023/09/08 07:21:28;;;;;;;7.40;5.60;;;;;;;18.55;100.00;101802.53;5032404;28;20204;-71
2023/09/08 07:23:54;;;;;;;6.00;4.83;;;;;;;18.83;100.00;101863.66;5031877;28;20208;-71
2023/09/08 07:26:19;;;;;;;7.57;5.40;;;;;;;18.86;100.00;101841.47;5033334;28;20293;-71
2023/09/08 07:28:45;;;;;;;7.13;5.70;;;;;;;18.17;100.00;101713.19;5032032;28;20207;-71
2023/09/08 07:31:11;;;;;;;8.03;5.40;;;;;;;19.16;100.00;101855.91;5030400;28;20289;-71
2023/09/08 07:33:37;;;;;;;6.37;5.30;;;;;;;18.65;100.00;101751.19;5048260;28;20180;-71
2023/09/08 07:36:07;;;;;;;9.40;5.10;;;;;;;19.16;100.00;101860.50;5032298;28;20434;-71
2023/09/08 07:38:33;;;;;;;6.43;4.97;;;;;;;18.83;100.00;101801.97;5033912;28;20483;-71
2023/09/08 07:41:00;;;;;;;6.60;5.03;;;;;;;18.74;100.00;101766.13;5032896;28;20459;-71
2023/09/08 07:43:26;;;;;;;6.20;5.10;;;;;;;19.46;100.00;101856.91;5037281;28;20266;-71
2023/09/08 07:45:52;;;;;;;5.30;4.47;;;;;;;19.58;100.00;101858.59;5031950;28;20562;-71
2023/09/08 07:48:17;;;;;;;8.40;5.70;;;;;;;19.64;100.00;101835.06;5032308;28;20434;-71
2023/09/08 07:50:42;;;;;;;10.73;5.80;;;;;;;19.94;100.00;101845.88;5029790;28;20200;-71
2023/09/08 07:53:08;;;;;;;6.73;5.17;;;;;;;19.27;100.00;101747.38;5033634;28;20185;-71
2023/09/08 07:55:33;;;;;;;7.20;5.70;;;;;;;19.72;100.00;101817.59;5035414;28;20184;-71
2023/09/08 07:58:00;;;;;;;6.97;4.93;;;;;;;20.06;100.00;101849.44;5030333;28;20330;-71
2023/09/08 08:00:27;;;;;;;9.43;4.93;;;;;;;19.97;100.00;101809.19;5032032;28;20204;-71
2023/09/08 08:02:55;;;;;;;5.67;5.00;;;;;;;19.84;100.00;101783.84;5038832;28;20453;-71
2023/09/08 08:05:20;;;;;;;5.57;4.50;;;;;;;20.07;100.00;101804.78;5036605;28;20501;-71
2023/09/08 08:07:46;;;;;;;6.60;4.73;;;;;;;20.26;100.00;101843.59;5036666;28;20886;-71
2023/09/08 08:10:13;;;;;;;5.30;4.13;;;;;;;20.29;100.00;101848.56;5041357;28;20295;-71
2023/09/08 08:12:42;;;;;;;7.53;4.47;;;;;;;20.50;100.00;101844.38;5034821;28;20577;-71
2023/09/08 08:15:12;;;;;;;5.67;4.50;;;;;;;20.50;100.00;101832.66;5032789;28;20568;-71
2023/09/08 08:17:39;;;;;;;6.23;4.27;;;;;;;20.22;100.00;101778.94;5037664;28;20520;-71
2023/09/08 08:20:06;;;;;;;5.13;3.80;;;;;;;20.62;100.00;101821.75;5035485;28;20443;-71
2023/09/08 08:22:33;;;;;;;5.73;4.50;;;;;;;20.86;100.00;101836.97;5042772;28;20838;-71
2023/09/08 08:24:59;;;;;;;5.80;4.30;;;;;;;19.02;100.00;101530.06;5033449;28;20449;-71
2023/09/08 08:27:24;;;;;;;5.53;3.90;;;;;;;20.62;100.00;101799.94;5038395;28;20972;-71
2023/09/08 08:29:50;;;;;;;5.13;3.93;;;;;;;20.84;100.00;101816.47;5036907;28;20488;-71
2023/09/08 08:32:16;;;;;;;5.60;4.40;;;;;;;21.02;100.00;101832.63;5034997;28;20218;-71
2023/09/08 08:34:42;;;;;;;6.00;4.37;;;;;;;21.02;100.00;101826.34;5034390;28;20441;-71
2023/09/08 08:37:07;;;;;;;9.83;4.17;;;;;;;20.62;100.00;101759.06;5035700;28;20187;-71
2023/09/08 08:39:33;;;;;;;5.50;4.00;;;;;;;21.11;100.00;101816.69;5039839;28;20180;-71
2023/09/08 08:41:58;;;;;;;5.93;4.17;;;;;;;21.24;100.00;101821.84;5038655;28;20709;-71
2023/09/08 08:44:25;;;;;;;5.30;4.07;;;;;;;21.33;100.00;101830.44;5043703;28;20653;-71
2023/09/08 08:46:50;;;;;;;9.73;5.40;;;;;;;21.22;100.00;101807.59;5033736;28;20191;-71
2023/09/08 08:49:17;;;;;;;6.73;4.87;;;;;;;21.42;100.00;101835.28;5036815;28;20433;-71
2023/09/08 08:51:44;;;;;;;8.67;5.30;;;;;;;21.67;100.00;101821.22;5044153;28;22183;-71
2023/09/08 08:54:13;;;;;;;7.30;5.13;;;;;;;21.30;100.00;101760.81;5034152;28;20449;-71
2023/09/08 08:56:39;;;;;;;7.10;5.13;;;;;;;21.61;100.00;101805.00;5036049;28;20445;-71
2023/09/08 08:59:05;;;;;;;7.13;5.63;;;;;;;21.72;100.00;101765.84;5030646;28;20500;-71
2023/09/08 09:01:31;;;;;;;6.53;5.00;;;;;;;21.89;100.00;101801.31;5030968;28;20317;-71
2023/09/08 09:03:58;;;;;;;5.73;4.93;;;;;;;21.93;100.00;101788.84;5036865;28;20439;-71
2023/09/08 09:06:23;;;;;;;7.93;4.60;;;;;;;21.59;100.00;101734.28;5037722;28;20423;-71
2023/09/08 09:08:48;;;;;;;9.03;5.83;;;;;;;22.20;100.00;101812.72;5031228;28;20974;-71
2023/09/08 09:11:16;;;;;;;6.10;4.33;;;;;;;22.04;100.00;101790.63;5036620;28;21164;-71
2023/09/08 09:13:42;;;;;;;5.20;3.60;;;;;;;22.23;100.00;101812.22;5035463;28;20184;-71
2023/09/08 09:16:10;;;;;;;5.67;4.00;;;;;;;22.30;100.00;101808.22;5032087;28;20446;-71
2023/09/08 09:18:54;;;;;;;5.10;4.17;;;;;;;21.80;100.00;101716.28;5036778;28;20183;-71
2023/09/08 09:21:19;;;;;;;11.40;5.40;;;;;;;22.45;100.00;101736.50;5029358;28;20967;-70
2023/09/08 09:23:45;;;;;;;6.60;4.47;;;;;;;22.67;100.00;101804.81;5035300;28;20439;-71
2023/09/08 09:26:23;;;;;;;6.67;4.43;;;;;;;22.18;100.00;101744.63;5039416;28;20651;-71
2023/09/08 09:28:51;;;;;;;5.13;3.90;;;;;;;22.37;100.00;101752.53;5037466;28;20192;-71
2023/09/08 09:31:17;;;;;;;8.93;6.30;;;;;;;22.60;100.00;101702.22;5034739;28;20493;-70
2023/09/08 09:33:43;;;;;;;7.53;5.60;;;;;;;22.92;100.00;101743.25;5033236;28;20439;-71
2023/09/08 09:36:09;;;;;;;9.07;5.57;;;;;;;23.31;100.00;101778.63;5035474;28;20288;-71
2023/09/08 09:38:35;;;;;;;6.13;4.63;;;;;;;22.82;100.00;101765.03;5034095;28;20317;-71
2023/09/08 09:41:00;;;;;;;6.30;4.80;;;;;;;22.95;100.00;101772.88;5037051;28;20545;-71
2023/09/08 09:43:27;;;;;;;6.30;4.40;;;;;;;23.01;100.00;101777.28;5032483;28;20486;-71
2023/09/08 09:45:53;;;;;;;5.10;3.50;;;;;;;22.99;100.00;101782.19;5036426;28;20292;-71
2023/09/08 09:48:20;;;;;;;5.83;3.23;;;;;;;23.06;100.00;101787.47;5037270;28;21331;-71
2023/09/08 09:50:46;;;;;;;6.47;3.20;;;;;;;22.98;100.00;101777.81;5033610;28;20295;-71
2023/09/08 09:53:14;;;;;;;8.23;4.70;;;;;;;23.14;100.00;101741.31;5033404;28;20530;-71
2023/09/08 09:55:42;;;;;;;6.17;4.10;;;;;;;23.27;100.00;101774.78;5034519;28;20238;-71
2023/09/08 09:58:08;;;;;;;5.27;3.27;;;;;;;23.43;100.00;101787.47;5038832;28;20422;-71
2023/09/08 10:00:35;;;;;;;5.73;4.13;;;;;;;23.49;100.00;101775.50;5035451;28;20447;-71
2023/09/08 10:03:01;;;;;;;11.33;5.70;;;;;;;23.89;100.00;101771.38;5039766;28;20437;-71
2023/09/08 10:05:27;;;;;;;6.93;5.17;;;;;;;23.71;100.00;101772.66;5033424;28;20454;-71
2023/09/08 10:07:53;;;;;;;6.30;4.93;;;;;;;23.65;100.00;101749.03;5034561;28;20487;-71
2023/09/08 10:10:20;;;;;;;5.83;4.20;;;;;;;23.76;100.00;101763.66;5028047;28;20466;-71
2023/09/08 10:12:51;;;;;;;9.30;3.90;;;;;;;23.74;100.00;101769.38;5030905;28;20542;-71
2023/09/08 10:15:20;;;;;;;7.00;4.30;;;;;;;23.65;100.00;101747.13;5031322;28;20441;-71
2023/09/08 10:17:52;;;;;;;5.73;3.77;;;;;;;23.56;100.00;101715.03;5029036;28;20444;-71
2023/09/08 10:20:21;;;;;;;6.30;3.63;;;;;;;23.77;100.00;101749.69;5029166;28;20468;-71
2023/09/08 10:22:53;;;;;;;8.53;3.87;;;;;;;23.89;100.00;101755.78;5034839;28;20449;-71
2023/09/08 10:25:21;;;;;;;5.40;3.77;;;;;;;23.79;100.00;101746.69;5034640;28;20442;-71
2023/09/08 10:27:47;;;;;;;6.33;4.30;;;;;;;24.21;100.00;101752.09;5036698;28;20524;-71
2023/09/08 10:30:14;;;;;;;7.70;4.23;;;;;;;24.00;100.00;101720.22;5033483;28;20462;-71
2023/09/08 10:32:41;;;;;;;5.27;3.67;;;;;;;23.94;100.00;101702.94;5035246;28;20458;-71
2023/09/08 10:35:08;;;;;;;5.23;3.60;;;;;;;24.06;100.00;101724.63;5039085;28;20528;-71
2023/09/08 10:37:33;;;;;;;4.87;3.67;;;;;;;24.47;100.00;101735.75;5031310;28;20499;-71
2023/09/08 10:40:25;;;;;;;7.13;3.87;;;;;;;24.42;100.00;101739.28;5034056;28;20438;-71
2023/09/08 10:43:07;;;;;;;6.20;3.77;;;;;;;24.60;100.00;101740.72;5033934;28;20218;-71
2023/09/08 10:45:33;;;;;;;5.80;3.60;;;;;;;24.63;100.00;101733.88;5032350;28;20512;-71
2023/09/08 10:47:58;;;;;;;6.67;4.70;;;;;;;24.89;100.00;101738.28;5033041;28;20443;-71
2023/09/08 10:50:32;;;;;;;5.70;3.60;;;;;;;24.57;100.00;101720.16;5035240;28;20222;-71
2023/09/08 10:53:16;;;;;;;5.63;4.30;;;;;;;25.21;100.00;101742.72;5031330;28;20223;-71
2023/09/08 10:55:53;;;;;;;6.30;4.20;;;;;;;24.88;100.00;101719.34;5036731;28;20473;-71
2023/09/08 10:58:32;;;;;;;6.40;4.17;;;;;;;24.75;100.00;101745.41;5031074;28;20980;-71
2023/09/08 11:01:01;;;;;;;5.50;3.60;;;;;;;24.74;100.00;101730.06;5029830;28;20474;-71
2023/09/08 11:03:39;;;;;;;6.37;4.83;;;;;;;25.60;100.00;101742.97;5028324;28;20469;-71
2023/09/08 11:06:05;;;;;;;4.13;3.30;;;;;;;25.24;100.00;101733.94;5031194;28;20890;-71
2023/09/08 11:08:33;;;;;;;5.57;4.23;;;;;;;25.82;100.00;101750.03;5029953;28;20430;-70
2023/09/08 11:11:00;;;;;;;5.80;4.07;;;;;;;25.65;100.00;101744.84;5028390;28;20817;-71
2023/09/08 11:13:26;;;;;;;5.40;3.93;;;;;;;25.55;100.00;101731.16;5031727;28;20438;-71